createdAt,value
2023-02-05T00:01:14.945Z,9.77
2023-02-05T00:05:18.422Z,8.27
2023-02-05T00:09:21.864Z,10.23
2023-02-05T00:13:26.207Z,8.98
2023-02-05T00:17:42.919Z,8.68
2023-02-05T00:21:47.009Z,8.55
2023-02-05T00:25:50.192Z,9.43
2023-02-05T00:29:55.057Z,8.15
2023-02-05T00:33:59.699Z,8.43
2023-02-05T00:38:03.375Z,8.02
2023-02-05T00:42:06.942Z,8.77
2023-02-05T00:46:12.834Z,8.90
2023-02-05T00:50:17.222Z,9.40
2023-02-05T00:54:21.004Z,9.48
2023-02-05T00:58:23.822Z,9.23
2023-02-05T01:02:28.869Z,14.23
2023-02-05T01:06:32.478Z,9.40
2023-02-05T01:10:36.213Z,9.20
2023-02-05T01:14:39.434Z,8.60
2023-02-05T01:18:44.524Z,10.80
2023-02-05T01:22:48.078Z,9.15
2023-02-05T01:26:53.721Z,9.05
2023-02-05T01:30:57.330Z,8.88
2023-02-05T01:35:02.264Z,9.25
2023-02-05T01:39:05.668Z,9.25
2023-02-05T01:43:13.582Z,9.35
2023-02-05T01:47:17.063Z,10.88
2023-02-05T01:51:22.822Z,8.90
2023-02-05T01:55:26.354Z,8.65
2023-02-05T01:59:31.820Z,9.77
2023-02-05T02:03:34.788Z,13.00
2023-02-05T02:07:40.294Z,13.50
2023-02-05T02:11:44.300Z,9.30
2023-02-05T02:15:49.792Z,8.65
2023-02-05T02:19:57.745Z,9.70
2023-02-05T02:24:43.467Z,8.18
2023-02-05T02:28:51.845Z,9.70
2023-02-05T02:33:04.280Z,9.13
2023-02-05T02:37:09.562Z,9.50
2023-02-05T02:41:15.222Z,8.98
2023-02-05T02:45:21.356Z,11.82
2023-02-05T02:49:31.239Z,10.98
2023-02-05T02:53:37.681Z,9.82
2023-02-05T02:57:43.202Z,10.05
2023-02-05T03:01:53.613Z,11.85
2023-02-05T03:05:58.184Z,16.15
2023-02-05T03:10:04.860Z,10.80
2023-02-05T03:14:08.339Z,10.20
2023-02-05T03:18:14.064Z,17.45
2023-02-05T03:22:21.099Z,11.00
2023-02-05T03:26:27.612Z,10.48
2023-02-05T03:30:47.375Z,9.35
2023-02-05T03:35:04.449Z,11.18
2023-02-05T03:39:22.404Z,12.93
2023-02-05T03:43:35.051Z,10.65
2023-02-05T03:47:50.154Z,17.75
2023-02-05T03:52:01.045Z,11.50
2023-02-05T03:56:07.763Z,11.20
2023-02-05T04:00:16.127Z,10.82
2023-02-05T04:04:23.415Z,10.32
2023-02-05T04:08:31.168Z,12.75
2023-02-05T04:12:35.329Z,15.95
2023-02-05T04:16:39.020Z,11.93
2023-02-05T04:20:47.337Z,10.63
2023-02-05T04:24:53.963Z,10.82
2023-02-05T04:29:01.459Z,15.90
2023-02-05T04:33:05.752Z,16.92
2023-02-05T04:41:13.913Z,9.63
2023-02-05T04:45:18.946Z,10.15
2023-02-05T04:49:23.602Z,10.10
2023-02-05T04:53:29.387Z,10.52
2023-02-05T04:57:37.152Z,9.82
2023-02-05T05:01:51.854Z,10.68
2023-02-05T05:05:56.125Z,13.55
2023-02-05T05:10:09.086Z,10.55
2023-02-05T05:14:24.145Z,9.55
2023-02-05T05:18:29.132Z,9.38
2023-02-05T05:22:33.901Z,10.35
2023-02-05T05:26:44.742Z,12.15
2023-02-05T05:30:53.644Z,9.48
2023-02-05T05:34:59.611Z,9.68
2023-02-05T05:39:38.083Z,10.57
2023-02-05T05:44:03.788Z,12.63
2023-02-05T05:48:09.696Z,12.50
2023-02-05T05:52:16.450Z,11.43
2023-02-05T05:56:21.546Z,10.65
2023-02-05T06:00:38.170Z,11.45
2023-02-05T06:04:43.814Z,10.65
2023-02-05T06:08:50.883Z,11.57
2023-02-05T06:12:55.524Z,9.77
2023-02-05T06:17:01.040Z,9.85
2023-02-05T06:21:06.783Z,11.07
2023-02-05T06:25:10.945Z,10.43
2023-02-05T06:37:34.189Z,10.23
2023-02-05T06:41:48.758Z,9.73
2023-02-05T06:45:52.101Z,9.70
2023-02-05T06:49:55.806Z,16.52
2023-02-05T06:54:01.852Z,12.20
2023-02-05T06:58:06.150Z,11.35
2023-02-05T07:02:16.327Z,13.88
2023-02-05T07:06:20.525Z,11.27
2023-02-05T07:14:31.997Z,10.57
2023-02-05T07:18:39.676Z,10.43
2023-02-05T07:22:44.588Z,10.70
2023-02-05T07:26:53.876Z,10.43
2023-02-05T07:31:00.207Z,10.80
2023-02-05T07:35:04.765Z,12.45
2023-02-05T07:39:11.276Z,10.38
2023-02-05T07:43:24.992Z,11.32
2023-02-05T07:47:31.556Z,12.40
2023-02-05T07:51:35.994Z,12.27
2023-02-05T07:55:49.774Z,13.00
2023-02-05T07:59:58.506Z,13.02
2023-02-05T08:04:05.322Z,23.80
2023-02-05T08:08:11.265Z,23.58
2023-02-05T08:12:15.356Z,12.98
2023-02-05T08:16:26.925Z,16.30
2023-02-05T08:20:31.889Z,13.50
2023-02-05T08:24:39.370Z,14.65
2023-02-05T08:28:44.508Z,12.82
2023-02-05T08:32:54.364Z,14.25
2023-02-05T08:37:01.466Z,12.77
2023-02-05T08:41:16.706Z,14.15
2023-02-05T08:45:23.973Z,23.60
2023-02-05T08:49:37.470Z,18.05
2023-02-05T08:53:45.528Z,16.33
2023-02-05T08:57:53.247Z,16.08
2023-02-05T09:01:57.984Z,15.65
2023-02-05T09:06:13.522Z,15.32
2023-02-05T09:10:19.810Z,16.30
2023-02-05T09:14:23.725Z,22.35
2023-02-05T09:18:30.217Z,20.27
2023-02-05T09:22:35.156Z,15.02
2023-02-05T09:26:39.029Z,14.30
2023-02-05T09:30:47.676Z,15.73
2023-02-05T09:34:51.988Z,15.90
2023-02-05T09:39:13.047Z,15.20
2023-02-05T09:43:40.080Z,16.38
2023-02-05T09:47:46.351Z,17.02
2023-02-05T09:51:52.734Z,15.98
2023-02-05T09:56:00.216Z,19.52
2023-02-05T10:00:05.039Z,15.48
2023-02-05T10:04:09.364Z,15.30
2023-02-05T10:08:21.262Z,14.60
2023-02-05T10:12:38.651Z,16.20
2023-02-05T10:16:56.014Z,12.48
2023-02-05T10:21:04.541Z,11.05
2023-02-05T10:25:38.197Z,10.55
2023-02-05T10:29:50.084Z,27.83
2023-02-05T10:33:56.465Z,9.93
2023-02-05T10:38:04.793Z,9.18
2023-02-05T10:42:29.813Z,11.70
2023-02-05T10:46:41.174Z,10.10
2023-02-05T10:50:57.716Z,10.63
2023-02-05T10:59:08.549Z,9.40
2023-02-05T11:03:20.038Z,8.88
2023-02-05T11:07:28.286Z,10.30
2023-02-05T11:11:38.304Z,9.45
2023-02-05T11:15:55.167Z,7.57
2023-02-05T11:20:03.106Z,6.70
2023-02-05T11:24:10.571Z,6.45
2023-02-05T11:28:24.066Z,3.05
2023-02-05T11:32:41.264Z,3.35
2023-02-05T11:36:53.538Z,2.60
2023-02-05T11:40:59.306Z,1.55
2023-02-05T11:45:11.493Z,1.90
2023-02-05T11:49:23.065Z,1.20
2023-02-05T11:53:34.836Z,0.50
2023-02-05T11:57:45.122Z,0.40
2023-02-05T12:01:53.876Z,0.40
2023-02-05T12:06:07.135Z,0.60
2023-02-05T12:10:29.556Z,0.30
2023-02-05T12:14:46.075Z,0.47
2023-02-05T12:19:04.375Z,0.40
2023-02-05T12:23:37.857Z,0.32
2023-02-05T12:28:08.512Z,0.50
2023-02-05T12:32:17.508Z,0.47
2023-02-05T12:36:36.183Z,0.35
2023-02-05T12:40:54.507Z,0.30
2023-02-05T12:45:13.015Z,0.20
2023-02-05T12:49:26.208Z,0.35
2023-02-05T12:53:48.811Z,0.85
2023-02-05T12:57:58.914Z,0.30
2023-02-05T13:02:12.820Z,0.10
2023-02-05T13:06:21.797Z,0.30
2023-02-05T13:10:35.823Z,0.40
2023-02-05T13:14:47.536Z,0.28
2023-02-05T13:19:02.922Z,0.13
2023-02-05T13:23:24.372Z,0.50
2023-02-05T13:27:48.094Z,0.20
2023-02-05T13:31:55.972Z,0.20
2023-02-05T13:36:35.237Z,0.32
2023-02-05T13:41:03.411Z,0.17
2023-02-05T13:45:29.246Z,0.10
2023-02-05T13:50:02.081Z,0.30
2023-02-05T13:54:38.932Z,0.60
2023-02-05T13:58:52.993Z,0.40
2023-02-05T14:02:59.674Z,0.25
2023-02-05T14:07:06.119Z,0.30
2023-02-05T14:11:22.123Z,0.40
2023-02-05T14:15:41.119Z,0.40
2023-02-05T14:20:02.257Z,0.40
2023-02-05T14:24:28.949Z,0.40
2023-02-05T14:28:38.000Z,0.22
2023-02-05T14:33:02.507Z,0.50
2023-02-05T14:37:09.061Z,0.40
2023-02-05T14:41:19.878Z,0.35
2023-02-05T14:45:29.046Z,0.60
2023-02-05T14:49:41.842Z,0.35
2023-02-05T14:54:00.311Z,0.43
2023-02-05T14:58:11.602Z,0.47
2023-02-05T15:02:49.761Z,0.47
2023-02-05T15:06:56.862Z,0.25
2023-02-05T15:11:20.607Z,0.40
2023-02-05T15:15:40.389Z,0.50
2023-02-05T15:19:50.915Z,0.75
2023-02-05T15:24:13.246Z,0.50
2023-02-05T15:28:35.050Z,0.45
2023-02-05T15:32:47.801Z,0.50
2023-02-05T15:37:06.892Z,0.75
2023-02-05T15:41:19.030Z,0.60
2023-02-05T15:45:30.818Z,0.60
2023-02-05T15:49:41.934Z,0.50
2023-02-05T15:53:49.400Z,0.47
2023-02-05T15:58:07.263Z,0.70
2023-02-05T16:02:27.214Z,0.60
2023-02-05T16:06:32.301Z,0.63
2023-02-05T16:10:37.228Z,0.45
2023-02-05T16:14:46.593Z,0.70
2023-02-05T16:19:00.792Z,0.90
2023-02-05T16:23:12.940Z,0.88
2023-02-05T16:27:38.607Z,0.75
2023-02-05T16:31:45.288Z,0.80
2023-02-05T16:36:04.082Z,0.70
2023-02-05T16:40:09.979Z,0.50
2023-02-05T16:44:30.136Z,0.70
2023-02-05T16:48:37.805Z,0.60
2023-02-05T16:52:45.374Z,0.70
2023-02-05T16:56:55.405Z,1.00
2023-02-05T17:01:00.148Z,0.60
2023-02-05T17:05:09.334Z,0.80
2023-02-05T17:09:34.752Z,0.70
2023-02-05T17:14:12.342Z,0.93
2023-02-05T17:18:28.844Z,0.82
2023-02-05T17:22:45.077Z,0.80
2023-02-05T17:26:48.908Z,0.80
2023-02-05T17:30:53.166Z,1.10
2023-02-05T17:39:05.963Z,0.90
2023-02-05T17:43:09.843Z,1.30
2023-02-05T17:47:13.896Z,1.08
2023-02-05T17:51:26.480Z,1.40
2023-02-05T17:55:32.001Z,1.52
2023-02-05T17:59:35.650Z,1.50
2023-02-05T18:03:44.901Z,1.50
2023-02-05T18:07:53.287Z,1.45
2023-02-05T18:12:01.968Z,1.70
2023-02-05T18:16:06.619Z,1.70
2023-02-05T18:20:11.889Z,1.80
2023-02-05T18:24:18.363Z,1.63
2023-02-05T18:28:24.564Z,1.88
2023-02-05T18:32:37.231Z,1.90
2023-02-05T18:36:40.070Z,1.40
2023-02-05T18:40:44.827Z,1.60
2023-02-05T18:44:58.510Z,1.73
2023-02-05T18:49:01.951Z,1.60
2023-02-05T18:53:06.532Z,1.90
2023-02-05T18:57:12.633Z,1.40
2023-02-05T19:01:20.085Z,1.73
2023-02-05T19:05:23.614Z,1.90
2023-02-05T19:09:29.223Z,1.70
2023-02-05T19:13:32.928Z,1.58
2023-02-05T19:17:41.380Z,1.27
2023-02-05T19:21:46.977Z,1.02
2023-02-05T19:25:53.953Z,1.23
2023-02-05T19:30:02.309Z,1.65
2023-02-05T19:34:07.974Z,1.55
2023-02-05T19:38:11.936Z,1.30
2023-02-05T19:42:35.863Z,1.35
2023-02-05T19:46:45.250Z,1.40
2023-02-05T19:50:50.415Z,1.33
2023-02-05T19:54:55.405Z,1.33
2023-02-05T19:59:17.358Z,1.50
2023-02-05T20:03:23.977Z,1.67
2023-02-05T20:07:41.694Z,1.65
2023-02-05T20:11:49.277Z,1.35
2023-02-05T20:15:54.738Z,1.40
2023-02-05T20:20:13.936Z,1.33
2023-02-05T20:24:24.516Z,1.40
2023-02-05T20:28:32.788Z,1.60
2023-02-05T20:32:49.317Z,1.45
2023-02-05T20:37:04.519Z,1.52
2023-02-05T20:41:21.097Z,1.90
2023-02-05T20:45:26.808Z,1.88
2023-02-05T20:49:33.908Z,2.10
2023-02-05T20:53:39.026Z,2.00
2023-02-05T20:58:08.885Z,2.00
2023-02-05T21:02:14.710Z,2.22
2023-02-05T21:06:22.229Z,2.20
2023-02-05T21:10:27.009Z,2.10
2023-02-05T21:14:46.856Z,2.40
2023-02-05T21:18:52.394Z,2.40
2023-02-05T21:22:58.338Z,2.33
2023-02-05T21:27:07.888Z,2.25
2023-02-05T21:31:26.293Z,2.65
2023-02-05T21:35:36.775Z,2.92
2023-02-05T21:43:50.801Z,3.60
2023-02-05T21:48:06.121Z,2.60
2023-02-05T21:52:13.694Z,2.70
2023-02-05T21:56:20.663Z,3.00
2023-02-05T22:00:31.128Z,3.10
2023-02-05T22:09:04.420Z,3.33
2023-02-05T22:13:26.396Z,3.35
2023-02-05T22:17:30.252Z,3.30
2023-02-05T22:21:37.600Z,3.08
2023-02-05T22:25:53.204Z,3.30
2023-02-05T22:29:56.625Z,3.47
2023-02-05T22:34:00.636Z,2.60
2023-02-05T22:38:08.068Z,3.45
2023-02-05T22:42:19.580Z,3.00
2023-02-05T22:46:27.430Z,3.00
2023-02-05T22:50:30.881Z,2.63
2023-02-05T22:54:35.798Z,2.80
2023-02-05T22:58:41.175Z,2.80
2023-02-05T23:02:44.706Z,2.13
2023-02-05T23:06:52.693Z,3.05
2023-02-05T23:10:58.185Z,2.80
2023-02-05T23:15:02.210Z,2.70
2023-02-05T23:19:08.588Z,2.30
2023-02-05T23:23:20.907Z,2.60
2023-02-05T23:27:27.328Z,2.42
2023-02-05T23:31:35.212Z,2.45
2023-02-05T23:35:41.517Z,2.55
2023-02-05T23:39:45.263Z,2.53
2023-02-05T23:43:55.098Z,2.00
2023-02-05T23:47:59.143Z,2.10
2023-02-05T23:52:03.801Z,2.33
2023-02-05T23:56:07.425Z,2.35
